Shady Side, MD (20764)

2:47 AM EDT on August 05, 2015 (GMT -0400)
Felicity Cove | | Change Station
CLOSE
Current Station
Personal Weather Station
Location: Shady Side, MD
Elevation: 20 ft
Nearby Weather Stations

Elev 20 ft 38.85 °N, 76.49 °W | Updated 2 minutes ago

Partly Cloudy
Partly Cloudy
75.1 °F
Feels Like 73 °F
N
0.0
Wind Variable Wind from NNW
Gusts 1.0 mph

Today
High -- | Low -- °F
--% Chance of Precip.
Yesterday
High -- | Low -- °F
Precip. -- in
6:10 AM 8:13 PM
Waning Gibbous, 70% visible
Pressure 29.93 in
Visibility 7.0 miles
Clouds Clear
Heat Index 73 °F
Dew Point 74 °F
Humidity 96%
Rainfall 0.00 in
Snow Depth Not available.
UV 0 out of 12
Pollen 7.10 out of 12
Air Quality Not available.
Flu Activity Not available.
METAR KNAK 050554Z AUTO 00000KT 7SM CLR 24/22 A2992 RMK AO2 SLP134 60008 T02390217 10283 20239 50003

More Conditions Fewer Conditions

Pressure 29.93 in
Visibility 7.0 miles
Clouds Clear
Heat Index 73 °F
Dew Point 74 °F
Humidity 96%
Rainfall 0.00 in
Snow Depth Not available.
UV 0 out of 12
Pollen 7.10 out of 12
Air Quality Not available.
Flu Activity Not available.
METAR KNAK 050554Z AUTO 00000KT 7SM CLR 24/22 A2992 RMK AO2 SLP134 60008 T02390217 10283 20239 50003

More Conditions Fewer Conditions

10-Day Weather Forecast

×

Almanac

Astronomy

Aug. 05, 2015 Rise Set
Actual Time
Civil Twilight
Nautical Twilight
Astronomical Twilight
Moon
Length of Visible Light
Length of Day
Tomorrow will be .
, % of the Moon is Illuminated

Today's Extremes

State Highs State Lows

Community

WunderPhotos

Upload Photos

1,844,105 photos uploaded!

WunderBlogs® & News

Nearby

Air Quality

  Air Quality AQ Index Pollutant
Not available.

Snow Depth

Station Depth Elevation

Earthquake Activity

City Distance Mag. Time & Date
Minimum magnitude displayed is 2.5.

Coastal Water Temperatures

Place Temperature

Stations

Nearby Weather Stations

Station Location Temp. Windchill Dew Point Humidity Wind Precip. Elev Updated Type